Terminal Aerodrome Forecast
Issued by NWS Wilmington, OH

Current Version | Previous Version | Text Only | Print | Product List | Glossary Off
Versions: 1 2 3 4 5 6 7 8 9 10 11 12 13 14 15 16 17

000
FTUS41 KILN 310200 AAB
TAFCMH
TAF AMD
KCMH 310225Z 3102/3124 24004KT P6SM VCTS SCT060CB
      TEMPO 3102/3104 4SM -TSRA BR BKN040CB
     FM310500 24004KT P6SM SCT080
     FM311500 24006KT P6SM SCT040
     FM312300 26003KT P6SM SKC=

USA.gov is the U.S. government's official web portal to all federal, state and local government web resources and services.